Time;durP1;ratioP1;P1;durP2;ratioP2;P2;SDS_P1;SDS_P2;PMS_P1;PMS_P2;Temp;Humidity;BMP_temperature;BMP_pressure;BME280_temperature;BME280_humidity;BME280_pressure;Samples;Min_cycle;Max_cycle;Signal;HPM_P1;HPM_P2
2023/01/24 00:02:14;;;;;;;20.83;13.23;;;;;;;0.96;92.51;103463.50;5127899;27;20316;-71
2023/01/24 00:04:47;;;;;;;29.10;14.27;;;;;;;0.90;92.97;103459.34;5128030;27;20234;-70
2023/01/24 00:07:20;;;;;;;21.33;13.70;;;;;;;1.02;91.63;103466.69;5138134;27;20694;-72
2023/01/24 00:09:54;;;;;;;24.20;14.13;;;;;;;0.99;91.45;103460.66;5129246;27;20659;-71
2023/01/24 00:12:28;;;;;;;26.08;14.55;;;;;;;0.96;92.13;103467.03;5137376;27;20245;-71
2023/01/24 00:15:06;;;;;;;21.95;14.00;;;;;;;1.00;91.81;103463.25;5132021;27;20225;-70
2023/01/24 00:18:26;;;;;;;19.90;13.90;;;;;;;1.02;91.36;103474.69;5143439;27;20678;-70
2023/01/24 00:21:05;;;;;;;21.50;12.65;;;;;;;0.97;90.88;103474.06;5120757;27;20714;-71
2023/01/24 00:23:37;;;;;;;28.08;14.60;;;;;;;0.98;90.55;103483.78;5130477;27;20204;-71
2023/01/24 00:26:10;;;;;;;29.45;15.25;;;;;;;0.88;90.14;103478.06;5128735;27;20237;-69
2023/01/24 00:28:45;;;;;;;25.98;11.95;;;;;;;0.94;91.01;103476.91;5134593;27;20193;-69
2023/01/24 00:31:23;;;;;;;24.65;13.88;;;;;;;1.08;90.30;103477.06;5134254;27;20205;-70
2023/01/24 00:36:49;;;;;;;17.88;12.85;;;;;;;0.89;89.39;103473.59;5134806;27;20567;-70
2023/01/24 00:39:31;;;;;;;27.67;14.23;;;;;;;0.84;90.60;103481.84;5157457;27;20209;-69
2023/01/24 00:42:10;;;;;;;18.38;12.40;;;;;;;0.85;89.77;103478.22;5131077;27;20206;-71
2023/01/24 00:44:45;;;;;;;17.98;12.45;;;;;;;0.79;90.14;103473.19;5130974;27;20209;-71
2023/01/24 00:47:21;;;;;;;23.35;14.02;;;;;;;0.66;90.69;103468.56;5135726;27;20591;-71
2023/01/24 00:50:05;;;;;;;22.17;13.13;;;;;;;0.68;90.90;103466.66;5151375;27;20196;-71
2023/01/24 00:52:39;;;;;;;25.92;13.45;;;;;;;1.13;91.73;103467.03;5117285;27;20213;-72
2023/01/24 00:55:11;;;;;;;23.95;13.43;;;;;;;1.00;90.21;103465.94;5138234;27;20316;-71
2023/01/24 00:57:42;;;;;;;18.00;12.27;;;;;;;0.86;89.85;103455.97;5143488;27;20190;-71
2023/01/24 01:00:21;;;;;;;18.80;13.00;;;;;;;0.87;88.98;103459.50;5131815;27;20603;-70
2023/01/24 01:03:03;;;;;;;16.95;12.50;;;;;;;0.68;89.82;103467.53;5151843;27;20268;-71
2023/01/24 01:05:39;;;;;;;25.02;13.13;;;;;;;0.67;90.31;103467.63;5109450;27;20224;-73
2023/01/24 01:08:11;;;;;;;15.35;11.40;;;;;;;0.66;90.20;103469.41;5138400;27;20204;-70
2023/01/24 01:10:45;;;;;;;18.63;12.48;;;;;;;0.57;90.35;103466.34;5133673;27;20190;-71
2023/01/24 01:13:17;;;;;;;18.30;9.93;;;;;;;0.63;89.91;103474.88;5116443;27;20211;-71
2023/01/24 01:15:57;;;;;;;19.52;11.13;;;;;;;0.60;90.89;103476.84;5123968;27;20254;-72
2023/01/24 01:18:32;;;;;;;18.52;11.30;;;;;;;0.65;89.87;103473.03;5147360;27;20535;-71
2023/01/24 01:21:13;;;;;;;17.55;12.48;;;;;;;0.58;89.95;103473.41;5120839;27;20198;-72
2023/01/24 01:23:47;;;;;;;21.70;12.52;;;;;;;0.66;90.38;103472.09;5122950;27;20202;-71
2023/01/24 01:26:27;;;;;;;21.05;12.25;;;;;;;0.54;90.29;103477.13;5137464;27;20284;-69
2023/01/24 01:29:00;;;;;;;19.40;10.75;;;;;;;0.55;89.86;103478.88;5136829;27;20228;-71
2023/01/24 01:31:34;;;;;;;12.63;10.07;;;;;;;0.63;90.22;103484.72;5131389;27;20208;-72
2023/01/24 01:34:10;;;;;;;23.77;13.45;;;;;;;0.56;90.08;103485.94;5138685;27;20193;-70
2023/01/24 01:36:42;;;;;;;15.25;11.35;;;;;;;0.49;90.09;103482.69;5150064;27;20230;-70
2023/01/24 01:39:17;;;;;;;16.58;11.07;;;;;;;0.45;90.22;103489.09;5137833;27;20265;-73
2023/01/24 01:41:53;;;;;;;18.13;13.77;;;;;;;0.52;90.38;103490.56;5138074;27;20316;-69
2023/01/24 01:44:47;;;;;;;18.65;12.35;;;;;;;0.58;90.51;103484.91;5154688;27;20681;-71
2023/01/24 01:47:29;;;;;;;14.88;10.27;;;;;;;0.52;90.45;103487.03;5137459;27;20258;-71
2023/01/24 01:50:16;;;;;;;15.73;10.07;;;;;;;0.51;90.01;103493.28;5119061;27;20205;-70
2023/01/24 01:52:53;;;;;;;16.92;8.90;;;;;;;0.52;90.72;103482.56;5137630;27;20216;-70
2023/01/24 01:55:32;;;;;;;18.52;10.90;;;;;;;0.51;90.71;103488.81;5125466;27;20282;-71
2023/01/24 01:58:05;;;;;;;16.65;11.05;;;;;;;0.54;90.37;103488.66;5136372;27;20194;-72
2023/01/24 02:00:49;;;;;;;12.98;9.85;;;;;;;0.51;90.15;103491.47;5119608;27;20189;-71
2023/01/24 02:03:40;;;;;;;16.23;9.98;;;;;;;0.46;90.63;103484.66;5123921;27;20232;-71
2023/01/24 02:06:34;;;;;;;13.95;9.10;;;;;;;0.43;90.78;103481.22;5134603;27;20221;-70
2023/01/24 02:09:18;;;;;;;19.30;11.25;;;;;;;0.44;90.82;103488.25;5127698;28;20186;-71
2023/01/24 02:11:56;;;;;;;15.10;9.70;;;;;;;0.38;90.59;103485.91;5129957;28;20193;-72
2023/01/24 02:17:20;;;;;;;10.77;7.82;;;;;;;0.53;89.49;103488.75;5128761;27;20218;-71
2023/01/24 02:20:30;;;;;;;16.88;8.52;;;;;;;0.43;88.33;103486.53;5135507;27;20551;-71
2023/01/24 02:23:21;;;;;;;15.00;8.75;;;;;;;0.39;87.82;103479.59;5141321;27;20284;-72
2023/01/24 02:26:11;;;;;;;10.98;8.98;;;;;;;0.36;87.38;103484.22;5130377;27;20246;-68
2023/01/24 02:28:50;;;;;;;16.52;9.32;;;;;;;0.39;87.49;103495.59;5132838;28;20276;-71
2023/01/24 02:31:26;;;;;;;11.63;7.63;;;;;;;0.20;88.04;103499.19;5125065;27;20194;-72
2023/01/24 02:33:57;;;;;;;8.48;5.93;;;;;;;0.29;88.17;103504.13;5153659;27;20185;-70
2023/01/24 02:36:32;;;;;;;16.80;8.25;;;;;;;0.39;88.02;103492.06;5135603;27;20220;-71
2023/01/24 02:39:18;;;;;;;14.18;8.48;;;;;;;0.33;87.10;103501.22;5135838;27;20220;-71
2023/01/24 02:41:58;;;;;;;10.45;7.97;;;;;;;0.33;86.91;103498.56;5136392;27;20238;-72
2023/01/24 02:44:43;;;;;;;8.15;6.28;;;;;;;0.26;86.82;103491.78;5148455;27;20544;-73
2023/01/24 02:47:46;;;;;;;9.68;7.10;;;;;;;0.21;86.78;103495.59;5141410;27;20189;-71
2023/01/24 02:50:20;;;;;;;10.35;7.30;;;;;;;0.20;86.66;103500.06;5119110;27;20721;-72
2023/01/24 02:58:05;;;;;;;8.30;7.45;;;;;;;0.27;86.26;103496.19;5150635;27;20274;-71
2023/01/24 02:58:38;;;;;;;10.25;6.95;;;;;;;0.19;86.28;103492.16;5141531;27;20205;-71
2023/01/24 03:01:11;;;;;;;10.43;7.80;;;;;;;0.20;86.82;103493.88;5141571;27;20257;-70
2023/01/24 03:03:48;;;;;;;13.38;7.68;;;;;;;0.25;85.96;103498.03;5141589;27;20206;-71
2023/01/24 03:06:20;;;;;;;9.77;8.23;;;;;;;0.28;85.74;103489.94;5126459;27;20267;-69
2023/01/24 03:08:51;;;;;;;10.52;7.57;;;;;;;0.18;85.32;103491.28;5133374;27;20291;-72
2023/01/24 03:11:31;;;;;;;9.23;7.22;;;;;;;0.19;85.54;103498.34;5139940;27;20588;-72
2023/01/24 03:36:38;;;;;;;11.57;7.15;;;;;;;0.23;85.33;103491.94;5139371;27;20217;-71
2023/01/24 03:41:57;;;;;;;13.18;8.30;;;;;;;0.28;85.74;103487.25;5124660;27;20197;-70
2023/01/24 03:44:30;;;;;;;8.93;7.43;;;;;;;0.35;86.38;103483.34;5128293;27;20242;-71
2023/01/24 03:47:03;;;;;;;11.85;8.13;;;;;;;0.31;86.10;103476.44;5138914;27;20303;-70
2023/01/24 03:52:28;;;;;;;11.20;7.15;;;;;;;0.35;86.17;103483.34;5135808;27;20578;-71
2023/01/24 03:55:07;;;;;;;19.08;8.05;;;;;;;0.31;86.12;103492.44;5133666;27;20200;-72
2023/01/24 03:57:38;;;;;;;11.55;8.82;;;;;;;0.53;85.30;103475.44;5163694;27;20210;-71
2023/01/24 04:00:11;;;;;;;9.00;7.63;;;;;;;0.34;84.86;103484.28;5134710;27;20193;-72
2023/01/24 04:02:52;;;;;;;8.30;6.65;;;;;;;0.27;84.89;103472.22;5133299;27;20340;-71
2023/01/24 04:05:24;;;;;;;12.35;8.52;;;;;;;0.17;85.43;103476.25;5128892;27;20217;-71
2023/01/24 04:07:56;;;;;;;10.73;7.78;;;;;;;0.16;85.26;103471.84;5130362;27;20557;-71
2023/01/24 04:10:28;;;;;;;10.50;7.30;;;;;;;0.22;85.46;103476.88;5106991;27;20205;-71
2023/01/24 04:13:03;;;;;;;12.40;8.48;;;;;;;0.17;86.18;103473.59;5134805;27;20547;-70
2023/01/24 04:15:35;;;;;;;15.20;8.15;;;;;;;0.31;86.00;103475.59;5141912;27;20213;-70
2023/01/24 04:18:31;;;;;;;9.95;7.35;;;;;;;0.24;85.68;103485.66;5132454;27;20208;-71
2023/01/24 04:21:06;;;;;;;10.57;7.55;;;;;;;0.27;85.23;103485.53;5137201;27;20576;-71
2023/01/24 04:23:39;;;;;;;9.13;6.47;;;;;;;0.19;85.60;103482.38;5132152;27;20205;-70
2023/01/24 04:26:10;;;;;;;12.73;7.90;;;;;;;0.20;85.97;103481.41;5135669;27;20216;-70
2023/01/24 04:28:44;;;;;;;12.90;7.65;;;;;;;0.22;86.09;103489.34;5143046;27;20198;-71
2023/01/24 04:31:16;;;;;;;12.75;8.88;;;;;;;0.17;86.35;103497.56;5132711;27;20238;-70
2023/01/24 04:34:20;;;;;;;8.00;6.75;;;;;;;0.24;86.12;103490.97;5107765;27;20663;-72
2023/01/24 04:36:52;;;;;;;9.65;7.35;;;;;;;0.26;86.29;103473.16;5121933;27;20235;-70
2023/01/24 04:39:28;;;;;;;13.32;8.10;;;;;;;0.31;85.67;103480.91;5113954;27;20192;-69
2023/01/24 04:42:08;;;;;;;9.23;7.07;;;;;;;0.30;85.29;103480.03;5117053;27;20261;-71
2023/01/24 04:44:41;;;;;;;11.25;7.40;;;;;;;0.21;84.87;103475.16;5135114;27;20194;-73
2023/01/24 04:47:14;;;;;;;10.27;7.60;;;;;;;0.29;85.27;103469.50;5137426;27;20238;-71
2023/01/24 04:49:47;;;;;;;11.82;9.07;;;;;;;0.18;86.10;103474.44;5138879;27;20276;-71
2023/01/24 04:52:20;;;;;;;12.05;9.02;;;;;;;0.36;84.98;103476.22;5142998;27;20198;-70
2023/01/24 04:55:02;;;;;;;10.20;6.68;;;;;;;0.27;84.57;103479.34;5135298;27;20194;-70
2023/01/24 04:57:35;;;;;;;10.60;8.57;;;;;;;0.24;84.33;103474.16;5134785;27;20196;-70
2023/01/24 05:00:09;;;;;;;12.15;8.27;;;;;;;0.21;84.24;103475.16;5127884;27;20666;-69
2023/01/24 05:02:42;;;;;;;14.85;10.07;;;;;;;0.16;84.34;103477.19;5137312;27;20201;-69
2023/01/24 05:05:17;;;;;;;11.75;9.23;;;;;;;0.13;85.05;103466.69;5139320;27;20212;-70
2023/01/24 05:07:49;;;;;;;9.18;8.20;;;;;;;0.32;85.15;103466.66;5131994;27;20189;-70
2023/01/24 05:10:23;;;;;;;12.32;8.85;;;;;;;0.23;84.19;103462.66;5131031;27;20193;-70
2023/01/24 05:12:55;;;;;;;13.82;8.55;;;;;;;0.17;85.45;103473.59;5121065;27;20539;-71
2023/01/24 05:15:27;;;;;;;10.10;8.68;;;;;;;0.29;84.43;103467.66;5131998;27;20708;-69
2023/01/24 05:18:00;;;;;;;12.07;8.05;;;;;;;0.26;84.12;103466.94;5133185;27;20606;-71
2023/01/24 05:20:35;;;;;;;12.82;8.93;;;;;;;0.24;84.73;103466.19;5158891;27;20201;-71
2023/01/24 05:23:08;;;;;;;13.32;8.25;;;;;;;0.37;84.44;103476.16;5140361;27;20223;-70
2023/01/24 05:25:43;;;;;;;9.35;6.88;;;;;;;0.34;83.50;103476.28;5118913;27;20237;-70
2023/01/24 05:28:18;;;;;;;13.02;9.18;;;;;;;0.24;84.13;103472.34;5136769;27;20181;-70
2023/01/24 05:30:53;;;;;;;12.95;7.07;;;;;;;0.19;83.88;103471.72;5143989;27;20197;-69
2023/01/24 05:33:30;;;;;;;13.38;7.53;;;;;;;0.19;84.03;103481.50;5129005;27;20213;-69
2023/01/24 05:36:04;;;;;;;13.07;9.30;;;;;;;0.22;83.84;103481.34;5128926;27;20721;-69
2023/01/24 05:38:38;;;;;;;8.27;7.35;;;;;;;0.17;84.15;103481.56;5131080;27;20276;-71
2023/01/24 05:41:17;;;;;;;9.35;8.32;;;;;;;0.14;84.70;103476.41;5131751;27;20756;-69
2023/01/24 05:43:51;;;;;;;10.73;8.18;;;;;;;0.08;84.96;103468.69;5135933;27;20220;-70
2023/01/24 05:46:29;;;;;;;8.68;7.78;;;;;;;0.13;84.69;103471.13;5136910;27;20257;-70
2023/01/24 05:49:13;;;;;;;8.40;7.60;;;;;;;0.14;84.54;103484.38;5122693;27;20193;-70
2023/01/24 05:51:47;;;;;;;11.77;7.68;;;;;;;0.08;84.30;103489.13;5128703;27;20312;-70
2023/01/24 05:54:28;;;;;;;9.57;7.82;;;;;;;0.13;84.74;103501.28;5125743;27;20553;-71
2023/01/24 05:57:05;;;;;;;13.10;7.93;;;;;;;0.15;84.73;103502.06;5147103;27;20265;-72
2023/01/24 05:59:56;;;;;;;11.48;7.50;;;;;;;0.15;84.73;103490.56;5154752;27;20190;-72
2023/01/24 06:02:28;;;;;;;13.02;7.93;;;;;;;0.15;84.97;103499.41;5138504;27;20199;-73
2023/01/24 06:04:59;;;;;;;21.08;11.00;;;;;;;0.23;84.77;103504.41;5132049;27;20306;-72
2023/01/24 06:07:33;;;;;;;11.00;9.32;;;;;;;0.18;83.75;103496.63;5153778;27;20195;-73
2023/01/24 06:10:04;;;;;;;14.10;9.38;;;;;;;0.14;84.07;103505.69;5138355;27;20194;-73
2023/01/24 06:12:46;;;;;;;13.40;7.68;;;;;;;0.10;84.42;103497.91;5120137;27;20206;-73
2023/01/24 06:15:26;;;;;;;10.93;8.20;;;;;;;-0.03;84.88;103513.56;5166817;27;20278;-72
2023/01/24 06:17:57;;;;;;;14.48;9.18;;;;;;;0.00;85.55;103508.13;5125800;28;20190;-71
2023/01/24 06:20:28;;;;;;;14.18;8.50;;;;;;;0.16;84.67;103501.16;5166950;27;20220;-72
2023/01/24 06:23:05;;;;;;;14.48;9.15;;;;;;;0.03;85.62;103513.31;5138279;27;20197;-74
2023/01/24 06:25:44;;;;;;;16.60;10.88;;;;;;;0.12;85.20;103512.88;5134346;27;20598;-73
2023/01/24 06:28:17;;;;;;;11.70;8.45;;;;;;;0.16;85.03;103514.47;5151377;27;20198;-74
2023/01/24 06:30:57;;;;;;;14.40;9.25;;;;;;;0.05;85.40;103516.75;5159318;27;20209;-74
2023/01/24 06:33:41;;;;;;;14.60;10.07;;;;;;;0.15;85.03;103523.38;5141847;27;20196;-73
2023/01/24 06:36:42;;;;;;;17.35;9.95;;;;;;;-0.04;85.05;103527.81;5134809;27;20308;-74
2023/01/24 06:39:16;;;;;;;15.63;10.30;;;;;;;0.06;85.30;103529.13;5128774;27;20592;-71
2023/01/24 06:41:49;;;;;;;13.20;11.75;;;;;;;0.07;85.13;103528.19;5138360;27;20203;-71
2023/01/24 06:44:21;;;;;;;13.68;9.55;;;;;;;0.07;84.99;103536.19;5132635;27;20217;-72
2023/01/24 06:46:53;;;;;;;18.75;10.73;;;;;;;-0.03;85.41;103542.88;5118987;27;20264;-72
2023/01/24 06:49:23;;;;;;;21.90;12.00;;;;;;;-0.02;85.58;103545.47;5135680;27;20189;-72
2023/01/24 06:51:54;;;;;;;16.38;12.90;;;;;;;0.04;86.22;103540.81;5152361;27;20246;-73
2023/01/24 06:54:27;;;;;;;18.38;9.48;;;;;;;0.11;85.83;103540.44;5139700;27;20188;-74
2023/01/24 06:56:57;;;;;;;17.17;10.93;;;;;;;0.16;85.18;103545.56;5130260;27;20596;-72
2023/01/24 06:59:29;;;;;;;13.95;9.18;;;;;;;0.11;85.07;103548.44;5123505;27;20197;-71
2023/01/24 07:01:59;;;;;;;21.55;12.07;;;;;;;0.07;85.16;103556.63;5138948;27;20209;-71
2023/01/24 07:04:29;;;;;;;19.45;12.07;;;;;;;0.10;85.62;103546.69;5127847;27;20202;-71
2023/01/24 07:07:00;;;;;;;13.65;9.95;;;;;;;0.11;84.94;103547.56;5134630;27;21310;-71
2023/01/24 07:09:31;;;;;;;13.95;10.63;;;;;;;0.01;85.30;103557.75;5138652;27;20189;-70
2023/01/24 07:12:02;;;;;;;21.13;11.75;;;;;;;0.09;85.63;103560.09;5132964;27;20212;-74
2023/01/24 07:14:32;;;;;;;17.58;8.75;;;;;;;0.12;84.71;103565.28;5134922;27;20189;-71
2023/01/24 07:17:04;;;;;;;22.38;13.18;;;;;;;0.16;84.32;103566.84;5118848;27;20221;-71
2023/01/24 07:19:35;;;;;;;22.90;11.77;;;;;;;0.13;84.01;103573.19;5138608;27;20209;-72
2023/01/24 07:22:06;;;;;;;24.00;11.55;;;;;;;0.09;84.69;103566.28;5144500;27;20193;-73
2023/01/24 07:24:39;;;;;;;17.88;11.60;;;;;;;0.10;85.02;103578.66;5137051;27;20216;-72
2023/01/24 07:27:23;;;;;;;17.70;12.00;;;;;;;0.09;84.86;103571.63;5157259;27;20201;-71
2023/01/24 07:29:54;;;;;;;15.95;10.45;;;;;;;0.09;85.02;103576.94;5120138;27;20663;-72
2023/01/24 07:32:24;;;;;;;24.90;15.88;;;;;;;0.09;85.13;103579.59;5135012;27;20205;-71
2023/01/24 07:34:55;;;;;;;21.20;12.48;;;;;;;0.07;85.23;103568.16;5109666;27;20217;-74
2023/01/24 07:37:27;;;;;;;29.10;16.75;;;;;;;0.23;84.56;103574.50;5126001;27;20196;-73
2023/01/24 07:40:00;;;;;;;17.60;10.55;;;;;;;0.34;83.99;103576.66;5130529;27;20720;-72
2023/01/24 07:42:30;;;;;;;27.38;11.73;;;;;;;0.34;84.11;103572.19;5121510;27;20242;-71
2023/01/24 07:45:01;;;;;;;19.27;13.90;;;;;;;0.41;83.31;103564.78;5138603;27;20202;-72
2023/01/24 07:47:33;;;;;;;26.67;14.98;;;;;;;0.38;83.24;103562.28;5147598;27;20205;-70
2023/01/24 07:50:04;;;;;;;25.02;12.15;;;;;;;0.37;83.22;103572.06;5149679;27;20193;-71
2023/01/24 07:52:34;;;;;;;17.92;9.60;;;;;;;0.36;83.14;103565.00;5157303;27;20674;-72
2023/01/24 07:55:11;;;;;;;19.75;11.55;;;;;;;0.37;83.06;103572.06;5136790;27;20209;-71
2023/01/24 07:57:42;;;;;;;18.73;9.90;;;;;;;0.31;83.67;103583.00;5134973;27;20192;-70
2023/01/24 08:00:13;;;;;;;27.88;11.35;;;;;;;0.46;82.90;103583.22;5139494;27;20733;-72
2023/01/24 08:02:45;;;;;;;28.88;10.70;;;;;;;0.37;83.27;103582.72;5136810;27;20204;-72
2023/01/24 08:05:17;;;;;;;18.77;10.50;;;;;;;0.47;83.18;103584.97;5144987;27;20721;-72
2023/01/24 08:07:48;;;;;;;21.55;11.18;;;;;;;0.44;83.14;103586.81;5138365;27;20193;-72
2023/01/24 08:10:21;;;;;;;20.77;11.52;;;;;;;0.43;83.56;103593.09;5134544;27;20576;-71
2023/01/24 08:12:52;;;;;;;17.27;9.13;;;;;;;0.35;83.44;103597.03;5154579;27;20200;-71
2023/01/24 08:15:25;;;;;;;15.60;8.35;;;;;;;0.36;83.44;103602.31;5128411;27;20263;-72
2023/01/24 08:17:58;;;;;;;14.73;9.20;;;;;;;0.32;83.62;103600.72;5138082;27;20229;-71
2023/01/24 08:20:29;;;;;;;20.67;10.05;;;;;;;0.36;83.99;103591.66;5137782;27;20200;-71
2023/01/24 08:23:00;;;;;;;17.55;11.80;;;;;;;0.36;84.23;103604.97;5134849;27;20290;-72
2023/01/24 08:25:33;;;;;;;15.77;10.00;;;;;;;0.39;83.77;103586.16;5137179;27;20607;-71
2023/01/24 08:28:04;;;;;;;16.70;9.93;;;;;;;0.40;84.45;103598.56;5140659;27;20194;-72
2023/01/24 08:30:35;;;;;;;27.73;12.05;;;;;;;0.33;84.24;103597.13;5137309;27;20186;-72
2023/01/24 08:33:06;;;;;;;13.98;9.60;;;;;;;0.43;84.73;103593.09;5136302;27;20193;-71
2023/01/24 08:35:38;;;;;;;20.67;11.10;;;;;;;0.59;84.04;103589.69;5134464;27;20213;-72
2023/01/24 08:38:08;;;;;;;28.70;13.38;;;;;;;0.59;84.64;103592.38;5133689;27;20258;-70
2023/01/24 08:40:41;;;;;;;24.65;11.02;;;;;;;0.62;83.76;103589.56;5134896;27;20193;-70
2023/01/24 08:43:18;;;;;;;29.95;13.18;;;;;;;0.70;83.43;103590.06;5134790;27;20189;-70
2023/01/24 08:45:49;;;;;;;21.05;12.18;;;;;;;0.62;83.27;103595.78;5128074;27;20212;-70
2023/01/24 08:48:19;;;;;;;26.90;13.30;;;;;;;0.59;83.40;103598.56;5123182;27;20193;-70
2023/01/24 08:50:50;;;;;;;40.92;12.00;;;;;;;0.56;83.58;103587.19;5135373;27;20198;-70
2023/01/24 08:53:21;;;;;;;26.08;12.68;;;;;;;0.62;83.45;103594.91;5130379;27;20623;-71
2023/01/24 08:55:53;;;;;;;23.33;12.43;;;;;;;0.68;83.85;103592.78;5135029;27;20205;-70
2023/01/24 08:58:24;;;;;;;31.90;13.80;;;;;;;0.73;83.43;103588.13;5127821;27;20697;-70
2023/01/24 09:00:56;;;;;;;29.33;13.95;;;;;;;0.83;82.97;103588.53;5135868;27;20284;-71
2023/01/24 09:03:27;;;;;;;36.65;13.10;;;;;;;0.87;83.22;103593.66;5133841;27;20193;-72
2023/01/24 09:05:58;;;;;;;33.22;16.17;;;;;;;0.95;82.64;103590.63;5150235;27;20212;-71
2023/01/24 09:08:29;;;;;;;28.83;12.25;;;;;;;0.92;82.85;103588.09;5131572;27;20201;-70
2023/01/24 09:11:02;;;;;;;29.98;14.05;;;;;;;0.98;81.81;103585.13;5131024;27;20289;-71
2023/01/24 09:13:34;;;;;;;35.95;15.02;;;;;;;0.86;82.66;103591.94;5150285;27;20713;-70
2023/01/24 09:16:05;;;;;;;38.60;15.13;;;;;;;1.06;83.17;103592.78;5136360;27;20702;-70
2023/01/24 09:18:36;;;;;;;36.83;15.40;;;;;;;1.23;81.41;103600.81;5124669;27;20662;-69
2023/01/24 09:21:07;;;;;;;37.65;16.65;;;;;;;1.16;81.07;103602.06;5139963;27;20195;-70
2023/01/24 09:23:39;;;;;;;36.03;14.90;;;;;;;1.14;80.85;103602.13;5134368;27;20284;-71
2023/01/24 09:26:12;;;;;;;29.70;13.90;;;;;;;1.09;81.04;103606.81;5128099;27;20682;-71
2023/01/24 09:28:44;;;;;;;33.90;15.50;;;;;;;1.03;81.24;103604.44;5139314;27;20250;-70
2023/01/24 09:31:14;;;;;;;37.80;16.45;;;;;;;1.03;81.35;103612.44;5142100;27;20193;-71
2023/01/24 09:33:48;;;;;;;39.33;18.63;;;;;;;0.98;81.78;103603.78;5125805;27;20195;-71
2023/01/24 09:36:30;;;;;;;48.28;16.90;;;;;;;1.06;81.83;103604.31;5140429;27;20235;-71
2023/01/24 09:39:02;;;;;;;40.63;16.67;;;;;;;1.13;80.79;103603.06;5141275;27;20193;-70
2023/01/24 09:41:49;;;;;;;37.75;19.65;;;;;;;1.35;80.19;103602.00;5137417;27;20223;-71
2023/01/24 09:44:44;;;;;;;45.40;18.67;;;;;;;1.35;80.17;103604.66;5129794;27;20199;-70
2023/01/24 09:47:27;;;;;;;49.05;19.55;;;;;;;1.49;80.09;103594.16;5140429;27;20234;-70
2023/01/24 09:50:00;;;;;;;51.38;19.30;;;;;;;1.47;79.53;103598.69;5131362;27;20198;-71
2023/01/24 09:52:37;;;;;;;60.85;22.35;;;;;;;1.40;78.93;103597.31;5153549;27;20198;-71
2023/01/24 09:55:13;;;;;;;48.25;18.70;;;;;;;1.46;78.81;103592.50;5142556;27;20192;-70
2023/01/24 09:57:54;;;;;;;52.60;21.75;;;;;;;1.27;79.41;103587.22;5140622;27;20189;-71
2023/01/24 10:00:29;;;;;;;45.60;18.27;;;;;;;1.33;79.07;103580.72;5148923;27;20275;-72
2023/01/24 10:03:02;;;;;;;50.65;17.88;;;;;;;1.35;79.53;103583.31;5148921;27;20206;-72
2023/01/24 10:05:39;;;;;;;60.85;22.55;;;;;;;1.60;79.06;103579.31;5173028;27;20277;-71
2023/01/24 10:08:28;;;;;;;57.58;21.17;;;;;;;1.74;78.11;103578.63;5164901;27;20205;-71
2023/01/24 10:11:19;;;;;;;40.67;19.63;;;;;;;1.82;77.77;103568.41;5170683;27;20180;-72
2023/01/24 10:14:20;;;;;;;54.92;22.00;;;;;;;1.80;76.83;103561.41;5138648;27;20198;-72
2023/01/24 10:17:17;;;;;;;48.33;20.67;;;;;;;1.80;77.64;103575.59;5128362;28;20309;-72
2023/01/24 10:20:28;;;;;;;63.67;20.25;;;;;;;1.77;77.46;103565.09;5146998;27;20206;-73
2023/01/24 10:23:14;;;;;;;43.85;20.42;;;;;;;1.87;76.63;103555.66;5099330;27;20193;-73
2023/01/24 10:25:53;;;;;;;61.10;20.67;;;;;;;1.84;77.07;103561.16;5139148;27;20228;-74
2023/01/24 10:28:38;;;;;;;61.80;21.20;;;;;;;2.07;76.26;103558.16;5139107;27;20222;-72
2023/01/24 10:31:16;;;;;;;51.13;19.85;;;;;;;2.08;75.59;103556.34;5128492;27;20181;-71
2023/01/24 10:33:49;;;;;;;56.67;20.88;;;;;;;1.91;76.20;103553.69;5154770;27;20219;-71
2023/01/24 10:36:33;;;;;;;49.97;21.80;;;;;;;2.06;76.06;103556.41;5134555;27;20220;-71
2023/01/24 10:39:06;;;;;;;59.85;22.90;;;;;;;1.95;75.96;103569.47;5135911;27;20185;-72
2023/01/24 10:41:45;;;;;;;106.47;50.95;;;;;;;1.56;76.99;103564.41;5128983;27;20189;-71
2023/01/24 10:44:25;;;;;;;48.45;22.58;;;;;;;1.61;77.88;103569.50;5132612;27;20196;-72
2023/01/24 10:47:30;;;;;;;51.35;27.55;;;;;;;1.76;76.80;103558.03;5124751;27;20219;-71
2023/01/24 10:50:03;;;;;;;61.60;27.50;;;;;;;1.66;77.79;103564.78;5135741;27;20197;-71
2023/01/24 10:52:34;;;;;;;44.97;20.80;;;;;;;1.79;77.24;103555.22;5129672;28;20228;-70
2023/01/24 10:55:24;;;;;;;57.13;20.33;;;;;;;1.81;76.66;103560.44;5142727;27;20301;-71
2023/01/24 10:57:56;;;;;;;52.17;21.25;;;;;;;1.83;77.08;103564.78;5113661;27;20212;-70
2023/01/24 11:00:33;;;;;;;56.80;19.85;;;;;;;1.98;76.33;103561.31;5135754;27;20213;-71
2023/01/24 11:03:26;;;;;;;40.92;20.85;;;;;;;1.98;76.27;103563.97;5136047;27;20411;-71
2023/01/24 11:06:01;;;;;;;47.55;18.73;;;;;;;1.94;76.35;103573.06;5147062;27;20233;-71
2023/01/24 11:08:36;;;;;;;57.63;21.83;;;;;;;1.80;76.44;103564.06;5135720;27;20223;-71
2023/01/24 11:11:23;;;;;;;53.83;24.02;;;;;;;1.83;76.48;103559.44;5146293;27;20197;-72
2023/01/24 11:14:00;;;;;;;48.95;19.67;;;;;;;1.79;77.03;103562.34;5170420;27;20193;-72
2023/01/24 11:16:42;;;;;;;39.97;19.60;;;;;;;1.99;76.35;103562.16;5160708;27;20254;-72
2023/01/24 11:19:32;;;;;;;45.25;20.05;;;;;;;1.92;75.69;103552.75;5162347;27;20208;-71
2023/01/24 11:22:22;;;;;;;53.53;20.63;;;;;;;1.85;76.48;103552.19;5137599;27;20225;-72
2023/01/24 11:25:03;;;;;;;59.25;20.30;;;;;;;1.83;76.23;103554.09;5138914;27;20265;-72
2023/01/24 11:27:46;;;;;;;46.20;17.98;;;;;;;2.03;75.61;103545.88;5138592;27;20228;-70
2023/01/24 11:30:22;;;;;;;44.58;19.77;;;;;;;1.88;76.16;103546.72;5126904;27;20820;-72
2023/01/24 11:33:06;;;;;;;45.88;21.85;;;;;;;1.94;75.81;103549.03;5138562;27;20390;-71
2023/01/24 11:35:46;;;;;;;36.50;18.50;;;;;;;1.82;76.36;103541.69;5119585;27;20308;-72
2023/01/24 11:38:30;;;;;;;53.13;20.00;;;;;;;1.83;76.24;103548.75;5133599;27;20186;-71
2023/01/24 11:41:15;;;;;;;40.40;19.77;;;;;;;1.93;75.85;103544.66;5127934;27;20225;-72
2023/01/24 11:48:13;;;;;;;36.35;16.38;;;;;;;2.03;75.52;103527.16;5152878;27;20220;-73
2023/01/24 11:51:01;;;;;;;33.70;17.33;;;;;;;2.13;75.22;103531.06;5113486;27;20204;-71
2023/01/24 11:54:06;;;;;;;39.17;16.25;;;;;;;2.09;75.39;103532.19;5139498;27;20209;-72
2023/01/24 11:56:48;;;;;;;35.22;16.58;;;;;;;2.07;75.86;103528.75;5153987;27;20240;-72
2023/01/24 11:59:45;;;;;;;42.80;19.67;;;;;;;1.99;75.85;103536.31;5143566;27;20616;-70
2023/01/24 12:02:50;;;;;;;30.63;17.27;;;;;;;2.19;75.14;103533.41;5147723;27;20181;-70
2023/01/24 12:05:45;;;;;;;42.55;15.73;;;;;;;2.04;75.17;103520.88;5117442;27;20265;-70
2023/01/24 12:08:36;;;;;;;44.50;19.73;;;;;;;2.15;75.85;103522.97;5124323;27;20224;-70
2023/01/24 12:11:14;;;;;;;53.80;22.95;;;;;;;2.28;76.05;103523.16;5128441;27;20284;-69
2023/01/24 12:14:41;;;;;;;54.33;19.55;;;;;;;2.28;75.37;103515.13;5146684;27;20212;-72
2023/01/24 12:17:25;;;;;;;48.55;20.85;;;;;;;2.31;75.42;103515.00;5158533;27;20241;-71
2023/01/24 12:20:21;;;;;;;45.67;18.83;;;;;;;2.32;75.29;103517.59;5159650;27;20276;-72
2023/01/24 12:23:13;;;;;;;38.10;17.13;;;;;;;2.62;74.84;103518.53;5140714;27;20201;-71
2023/01/24 12:25:48;;;;;;;33.63;16.95;;;;;;;2.38;74.37;103508.34;5141692;27;20219;-72
2023/01/24 12:28:30;;;;;;;35.17;20.92;;;;;;;2.26;74.97;103509.03;5126933;27;20240;-71
2023/01/24 12:31:05;;;;;;;39.70;17.52;;;;;;;2.35;75.14;103506.72;5151280;27;20249;-70
2023/01/24 12:33:51;;;;;;;46.15;19.02;;;;;;;2.29;74.66;103509.72;5137737;27;20227;-71
2023/01/24 12:36:35;;;;;;;42.58;20.63;;;;;;;2.32;74.91;103509.56;5135207;27;20239;-72
2023/01/24 12:39:17;;;;;;;33.92;16.58;;;;;;;2.31;75.02;103513.19;5119280;27;20194;-71
2023/01/24 12:42:20;;;;;;;37.55;17.67;;;;;;;2.33;75.40;103513.09;5138336;27;20189;-72
2023/01/24 12:44:58;;;;;;;44.00;17.95;;;;;;;2.38;75.14;103513.69;5137494;27;20673;-72
2023/01/24 12:47:38;;;;;;;36.60;17.13;;;;;;;2.32;74.71;103519.41;5144748;27;20202;-73
2023/01/24 12:50:21;;;;;;;49.00;19.40;;;;;;;2.17;75.49;103511.28;5130784;27;20192;-72
2023/01/24 12:53:06;;;;;;;41.90;19.83;;;;;;;2.13;75.86;103508.88;5139336;27;20232;-71